createdAt,value
2022-09-06T00:00:38.841Z,62.50
2022-09-06T00:03:43.325Z,62.26
2022-09-06T00:06:47.866Z,62.16
2022-09-06T00:09:52.441Z,62.42
2022-09-06T00:12:57.109Z,62.84
2022-09-06T00:16:06.846Z,63.09
2022-09-06T00:19:11.452Z,63.50
2022-09-06T00:22:16.159Z,63.37
2022-09-06T00:25:20.782Z,63.33
2022-09-06T00:28:25.336Z,63.19
2022-09-06T00:31:29.918Z,63.09
2022-09-06T00:34:34.490Z,62.91
2022-09-06T00:37:40.913Z,63.20
2022-09-06T00:40:45.382Z,63.04
2022-09-06T00:43:49.913Z,62.56
2022-09-06T00:46:55.797Z,62.17
2022-09-06T00:50:01.343Z,62.22
2022-09-06T00:53:05.873Z,62.23
2022-09-06T00:56:10.342Z,62.13
2022-09-06T00:59:15.191Z,62.63
2022-09-06T01:02:20.269Z,62.85
2022-09-06T01:05:27.894Z,62.79
2022-09-06T01:08:41.482Z,62.63
2022-09-06T01:11:58.373Z,63.35
2022-09-06T01:15:16.953Z,64.37
2022-09-06T01:18:25.454Z,64.01
2022-09-06T01:21:39.098Z,63.82
2022-09-06T01:24:56.184Z,63.64
2022-09-06T01:28:16.303Z,63.38
2022-09-06T01:31:24.976Z,63.46
2022-09-06T01:34:32.994Z,63.18
2022-09-06T01:37:37.872Z,62.93
2022-09-06T01:40:42.230Z,63.09
2022-09-06T01:43:48.785Z,62.85
2022-09-06T01:46:57.042Z,63.22
2022-09-06T01:50:13.970Z,62.71
2022-09-06T01:53:31.321Z,62.56
2022-09-06T01:56:39.076Z,62.64
2022-09-06T01:59:57.857Z,62.60
2022-09-06T02:03:07.633Z,62.78
2022-09-06T02:06:14.500Z,62.79
2022-09-06T02:09:22.057Z,62.54
2022-09-06T02:12:27.294Z,62.80
2022-09-06T02:15:34.671Z,62.38
2022-09-06T02:18:42.071Z,62.42
2022-09-06T02:21:47.875Z,62.70
2022-09-06T02:24:54.117Z,62.40
2022-09-06T02:27:58.697Z,62.42
2022-09-06T02:31:05.192Z,62.63
2022-09-06T02:34:10.557Z,62.78
2022-09-06T02:37:16.632Z,62.73
2022-09-06T02:40:21.454Z,62.51
2022-09-06T02:43:26.031Z,63.25
2022-09-06T02:46:31.007Z,63.09
2022-09-06T02:49:35.513Z,63.01
2022-09-06T02:52:39.949Z,62.36
2022-09-06T02:55:44.522Z,62.77
2022-09-06T02:58:50.114Z,62.80
2022-09-06T03:01:54.589Z,62.65
2022-09-06T03:04:59.051Z,62.71
2022-09-06T03:08:03.785Z,62.61
2022-09-06T03:11:08.237Z,62.70
2022-09-06T03:14:12.689Z,62.86
2022-09-06T03:17:17.135Z,63.09
2022-09-06T03:20:21.693Z,62.87
2022-09-06T03:23:27.570Z,62.98
2022-09-06T03:26:32.095Z,62.79
2022-09-06T03:29:36.512Z,62.66
2022-09-06T03:32:41.101Z,62.26
2022-09-06T03:35:50.454Z,62.53
2022-09-06T03:38:55.301Z,62.62
2022-09-06T03:41:59.756Z,62.70
2022-09-06T03:45:04.177Z,62.08
2022-09-06T03:48:08.698Z,61.85
2022-09-06T03:51:13.181Z,62.30
2022-09-06T03:54:17.630Z,62.62
2022-09-06T03:57:22.137Z,62.96
2022-09-06T04:00:26.624Z,63.01
2022-09-06T04:03:31.153Z,62.86
2022-09-06T04:06:35.626Z,62.60
2022-09-06T04:09:40.157Z,62.60
2022-09-06T04:12:45.119Z,62.52
2022-09-06T04:15:49.854Z,62.69
2022-09-06T04:18:54.213Z,62.55
2022-09-06T04:21:58.657Z,62.90
2022-09-06T04:25:03.113Z,63.13
2022-09-06T04:28:07.613Z,62.89
2022-09-06T04:31:12.085Z,62.86
2022-09-06T04:34:16.903Z,62.91
2022-09-06T04:37:21.381Z,63.10
2022-09-06T04:40:25.859Z,62.99
2022-09-06T04:43:30.457Z,62.96
2022-09-06T04:46:34.945Z,63.44
2022-09-06T04:49:39.506Z,63.38
2022-09-06T04:52:44.020Z,63.49
2022-09-06T04:55:48.481Z,63.66
2022-09-06T04:58:53.655Z,63.57
2022-09-06T05:01:58.219Z,63.47
2022-09-06T05:05:02.625Z,63.55
2022-09-06T05:08:07.060Z,63.81
2022-09-06T05:11:12.424Z,64.07
2022-09-06T05:14:16.872Z,64.12
2022-09-06T05:17:21.306Z,64.42
2022-09-06T05:20:25.886Z,64.61
2022-09-06T05:23:30.400Z,64.69
2022-09-06T05:26:34.858Z,64.66
2022-09-06T05:29:39.433Z,65.03
2022-09-06T05:32:43.984Z,65.20
2022-09-06T05:35:49.762Z,65.56
2022-09-06T05:38:54.961Z,65.37
2022-09-06T05:41:59.401Z,64.95
2022-09-06T05:45:03.982Z,64.96
2022-09-06T05:48:08.854Z,65.01
2022-09-06T05:51:14.162Z,64.87
2022-09-06T05:54:18.711Z,64.61
2022-09-06T05:57:23.267Z,64.70
2022-09-06T06:00:27.789Z,64.76
2022-09-06T06:03:32.237Z,64.81
2022-09-06T06:06:36.750Z,64.86
2022-09-06T06:09:41.240Z,64.85
2022-09-06T06:12:45.681Z,64.96
2022-09-06T06:15:50.252Z,65.12
2022-09-06T06:18:55.139Z,65.09
2022-09-06T06:21:59.690Z,65.22
2022-09-06T06:25:04.530Z,64.96
2022-09-06T06:28:09.145Z,64.82
2022-09-06T06:31:13.774Z,64.49
2022-09-06T06:34:22.163Z,64.76
2022-09-06T06:37:26.674Z,64.81
2022-09-06T06:40:31.107Z,64.23
2022-09-06T06:43:38.010Z,64.05
2022-09-06T06:46:42.929Z,63.77
2022-09-06T06:49:48.744Z,63.88
2022-09-06T06:52:54.301Z,63.10
2022-09-06T06:55:58.791Z,62.14
2022-09-06T06:59:04.529Z,61.35
2022-09-06T07:02:09.175Z,61.21
2022-09-06T07:08:38.633Z,60.71
2022-09-06T07:11:43.159Z,60.49
2022-09-06T07:14:47.667Z,60.53
2022-09-06T07:17:53.200Z,60.25
2022-09-06T07:24:24.362Z,59.23
2022-09-06T07:30:56.413Z,57.31
2022-09-06T07:34:01.733Z,57.65
2022-09-06T07:37:06.242Z,57.51
2022-09-06T07:40:11.870Z,57.08
2022-09-06T07:43:16.502Z,57.67
2022-09-06T07:46:21.030Z,57.50
2022-09-06T07:49:25.530Z,57.48
2022-09-06T07:55:54.722Z,61.76
2022-09-06T07:58:59.137Z,60.65
2022-09-06T08:02:03.682Z,58.01
2022-09-06T08:11:57.946Z,57.98
2022-09-06T08:15:02.430Z,58.57
2022-09-06T08:18:07.370Z,59.75
2022-09-06T08:21:13.130Z,59.97
2022-09-06T08:24:17.683Z,60.84
2022-09-06T08:27:22.114Z,60.97
2022-09-06T08:30:27.834Z,59.79
2022-09-06T08:33:32.328Z,60.11
2022-09-06T08:36:37.121Z,60.65
2022-09-06T08:39:41.726Z,59.91
2022-09-06T08:42:46.367Z,59.70
2022-09-06T08:45:55.807Z,59.97
2022-09-06T08:49:00.475Z,59.81
2022-09-06T08:52:18.396Z,58.11
2022-09-06T08:55:27.913Z,59.25
2022-09-06T08:58:44.521Z,59.49
2022-09-06T09:01:57.084Z,59.57
2022-09-06T09:05:05.657Z,59.12
2022-09-06T09:08:16.043Z,58.96
2022-09-06T09:11:22.059Z,57.99
2022-09-06T09:14:29.083Z,57.45
2022-09-06T09:17:33.895Z,57.18
2022-09-06T09:20:38.627Z,56.78
2022-09-06T09:23:43.193Z,56.89
2022-09-06T09:26:50.843Z,54.71
2022-09-06T09:33:31.576Z,55.49
2022-09-06T09:36:36.093Z,56.33
2022-09-06T09:39:41.632Z,55.20
2022-09-06T09:42:46.291Z,54.43
2022-09-06T09:46:08.882Z,55.81
2022-09-06T09:49:14.688Z,54.26
2022-09-06T09:52:24.927Z,55.26
2022-09-06T09:55:29.609Z,54.59
2022-09-06T09:58:36.763Z,54.36
2022-09-06T10:01:41.285Z,53.55
2022-09-06T10:04:48.368Z,53.51
2022-09-06T10:07:53.995Z,54.69
2022-09-06T10:10:58.966Z,53.86
2022-09-06T10:14:12.617Z,54.42
2022-09-06T10:17:30.662Z,54.35
2022-09-06T10:20:36.876Z,53.02
2022-09-06T10:27:16.092Z,53.02
2022-09-06T10:30:22.361Z,52.63
2022-09-06T10:33:31.084Z,51.76
2022-09-06T10:36:36.837Z,51.83
2022-09-06T10:39:49.401Z,50.79
2022-09-06T10:42:54.377Z,50.71
2022-09-06T10:46:03.592Z,49.96
2022-09-06T10:49:11.705Z,49.65
2022-09-06T10:52:18.690Z,49.33
2022-09-06T10:55:24.239Z,51.07
2022-09-06T11:01:59.544Z,50.23
2022-09-06T11:08:53.586Z,50.40
2022-09-06T11:12:04.945Z,51.08
2022-09-06T11:15:12.085Z,51.42
2022-09-06T11:18:19.621Z,50.68
2022-09-06T11:21:32.305Z,49.54
2022-09-06T11:24:46.209Z,49.81
2022-09-06T11:27:57.335Z,49.83
2022-09-06T11:31:03.801Z,50.27
2022-09-06T11:34:10.469Z,49.69
2022-09-06T11:37:25.854Z,49.01
2022-09-06T11:40:31.022Z,50.72
2022-09-06T11:43:46.168Z,49.41
2022-09-06T11:47:07.844Z,48.17
2022-09-06T11:50:26.074Z,48.93
2022-09-06T11:53:31.138Z,48.75
2022-09-06T11:56:40.815Z,49.40
2022-09-06T11:59:53.466Z,49.22
2022-09-06T12:06:23.380Z,48.84
2022-09-06T12:09:31.675Z,48.07
2022-09-06T12:12:43.156Z,47.69
2022-09-06T12:15:53.398Z,48.12
2022-09-06T12:19:02.028Z,47.93
2022-09-06T12:22:26.657Z,47.49
2022-09-06T12:25:48.451Z,46.65
2022-09-06T12:28:53.830Z,47.20
2022-09-06T12:31:58.623Z,47.17
2022-09-06T12:38:28.771Z,46.18
2022-09-06T12:41:34.159Z,46.08
2022-09-06T12:44:39.220Z,47.13
2022-09-06T12:47:43.725Z,46.48
2022-09-06T12:51:01.661Z,46.12
2022-09-06T12:54:07.213Z,46.11
2022-09-06T12:57:15.978Z,46.85
2022-09-06T13:00:20.710Z,46.89
2022-09-06T13:03:27.245Z,45.73
2022-09-06T13:06:34.333Z,46.88
2022-09-06T13:09:39.756Z,46.73
2022-09-06T13:12:46.261Z,46.07
2022-09-06T13:15:50.779Z,45.48
2022-09-06T13:18:55.793Z,45.00
2022-09-06T13:22:00.866Z,44.46
2022-09-06T13:25:05.822Z,44.36
2022-09-06T13:28:10.267Z,45.26
2022-09-06T13:31:21.275Z,45.90
2022-09-06T13:34:26.674Z,45.64
2022-09-06T13:37:33.856Z,44.97
2022-09-06T13:41:09.650Z,45.83
2022-09-06T13:44:17.275Z,43.92
2022-09-06T13:47:21.919Z,45.13
2022-09-06T13:50:28.008Z,45.22
2022-09-06T13:53:33.000Z,45.45
2022-09-06T13:56:37.675Z,45.28
2022-09-06T13:59:43.069Z,45.65
2022-09-06T14:02:49.093Z,44.98
2022-09-06T14:05:53.594Z,44.49
2022-09-06T14:09:13.763Z,45.01
2022-09-06T14:12:18.478Z,45.21
2022-09-06T14:15:23.453Z,45.57
2022-09-06T14:18:28.474Z,45.99
2022-09-06T14:21:33.066Z,46.04
2022-09-06T14:24:37.569Z,45.27
2022-09-06T14:27:42.083Z,45.46
2022-09-06T14:30:46.693Z,45.22
2022-09-06T14:33:51.194Z,45.93
2022-09-06T14:36:55.650Z,45.33
2022-09-06T14:40:00.179Z,46.10
2022-09-06T14:43:05.061Z,46.00
2022-09-06T14:46:10.295Z,46.97
2022-09-06T14:49:14.970Z,46.87
2022-09-06T14:52:20.037Z,46.02
2022-09-06T14:55:24.887Z,46.06
2022-09-06T14:58:29.387Z,46.44
2022-09-06T15:01:38.665Z,45.95
2022-09-06T15:04:43.299Z,46.47
2022-09-06T15:07:48.094Z,46.16
2022-09-06T15:10:55.319Z,45.99
2022-09-06T15:14:00.251Z,46.13
2022-09-06T15:17:08.946Z,47.05
2022-09-06T15:20:13.939Z,46.73
2022-09-06T15:23:26.040Z,46.79
2022-09-06T15:26:30.901Z,46.59
2022-09-06T15:29:35.491Z,47.38
2022-09-06T15:32:39.962Z,47.38
2022-09-06T15:35:44.642Z,47.31
2022-09-06T15:38:50.115Z,46.76
2022-09-06T15:41:54.626Z,47.03
2022-09-06T15:44:59.066Z,47.35
2022-09-06T15:48:03.513Z,48.03
2022-09-06T15:51:08.195Z,47.79
2022-09-06T15:54:13.013Z,47.30
2022-09-06T15:57:18.127Z,47.03
2022-09-06T16:00:23.818Z,47.28
2022-09-06T16:03:28.659Z,47.08
2022-09-06T16:06:33.930Z,47.47
2022-09-06T16:09:38.471Z,46.80
2022-09-06T16:12:44.671Z,46.82
2022-09-06T16:15:58.070Z,46.48
2022-09-06T16:19:02.593Z,46.47
2022-09-06T16:22:07.025Z,47.25
2022-09-06T16:25:11.522Z,46.91
2022-09-06T16:28:16.106Z,47.09
2022-09-06T16:31:21.082Z,47.60
2022-09-06T16:34:26.279Z,47.51
2022-09-06T16:37:30.728Z,47.36
2022-09-06T16:40:35.298Z,47.49
2022-09-06T16:43:39.816Z,47.94
2022-09-06T16:46:44.603Z,48.09
2022-09-06T16:49:49.110Z,48.34
2022-09-06T16:52:53.730Z,48.64
2022-09-06T16:55:58.202Z,48.68
2022-09-06T16:59:04.233Z,49.04
2022-09-06T17:02:08.848Z,48.50
2022-09-06T17:05:14.552Z,48.64
2022-09-06T17:08:19.141Z,48.85
2022-09-06T17:11:23.998Z,49.01
2022-09-06T17:14:28.513Z,48.97
2022-09-06T17:17:33.314Z,49.17
2022-09-06T17:20:39.139Z,49.26
2022-09-06T17:23:43.701Z,49.56
2022-09-06T17:26:48.191Z,50.25
2022-09-06T17:29:52.777Z,51.62
2022-09-06T17:32:57.294Z,51.82
2022-09-06T17:36:08.652Z,51.97
2022-09-06T17:39:14.896Z,52.24
2022-09-06T17:42:20.006Z,52.00
2022-09-06T17:45:24.527Z,52.30
2022-09-06T17:48:30.264Z,53.29
2022-09-06T17:51:35.481Z,54.21
2022-09-06T17:54:39.961Z,54.76
2022-09-06T17:57:44.326Z,54.88
2022-09-06T18:00:48.825Z,55.36
2022-09-06T18:03:53.542Z,55.98
2022-09-06T18:06:58.067Z,56.39
2022-09-06T18:10:02.633Z,57.11
2022-09-06T18:13:07.323Z,57.75
2022-09-06T18:16:12.293Z,57.72
2022-09-06T18:19:17.738Z,57.34
2022-09-06T18:22:22.218Z,57.54
2022-09-06T18:25:28.683Z,58.07
2022-09-06T18:28:33.913Z,58.74
2022-09-06T18:31:38.709Z,59.19
2022-09-06T18:34:43.216Z,59.77
2022-09-06T18:37:47.720Z,60.45
2022-09-06T18:40:55.914Z,60.97
2022-09-06T18:44:02.808Z,61.62
2022-09-06T18:47:08.313Z,61.83
2022-09-06T18:50:12.934Z,61.29
2022-09-06T18:53:18.369Z,61.08
2022-09-06T18:56:22.896Z,61.35
2022-09-06T18:59:27.519Z,62.08
2022-09-06T19:02:32.483Z,63.78
2022-09-06T19:05:37.548Z,67.17
2022-09-06T19:08:42.462Z,66.36
2022-09-06T19:11:51.465Z,65.02
2022-09-06T19:14:55.986Z,63.94
2022-09-06T19:18:00.514Z,62.98
2022-09-06T19:21:06.514Z,62.73
2022-09-06T19:24:11.661Z,62.20
2022-09-06T19:27:16.477Z,61.83
2022-09-06T19:30:20.905Z,61.24
2022-09-06T19:33:25.784Z,60.57
2022-09-06T19:36:32.061Z,59.83
2022-09-06T19:39:37.445Z,59.54
2022-09-06T19:42:42.043Z,59.14
2022-09-06T19:45:46.695Z,58.17
2022-09-06T19:48:51.969Z,59.21
2022-09-06T19:51:56.475Z,59.87
2022-09-06T19:55:00.917Z,60.51
2022-09-06T19:58:08.899Z,61.25
2022-09-06T20:01:18.001Z,61.85
2022-09-06T20:04:22.575Z,62.79
2022-09-06T20:07:28.485Z,65.46
2022-09-06T20:10:32.986Z,64.97
2022-09-06T20:13:37.955Z,64.14
2022-09-06T20:16:43.158Z,63.44
2022-09-06T20:19:48.382Z,62.78
2022-09-06T20:22:52.899Z,62.24
2022-09-06T20:26:01.112Z,61.63
2022-09-06T20:29:06.801Z,61.26
2022-09-06T20:32:11.242Z,61.08
2022-09-06T20:35:15.794Z,60.73
2022-09-06T20:38:20.334Z,60.40
2022-09-06T20:41:25.582Z,60.00
2022-09-06T20:44:30.033Z,59.82
2022-09-06T20:47:34.478Z,59.66
2022-09-06T20:50:38.929Z,59.57
2022-09-06T20:53:43.404Z,59.62
2022-09-06T20:56:47.987Z,59.55
2022-09-06T20:59:52.379Z,59.46
2022-09-06T21:02:57.105Z,58.73
2022-09-06T21:06:03.221Z,58.46
2022-09-06T21:09:08.546Z,59.47
2022-09-06T21:12:13.012Z,60.41
2022-09-06T21:15:17.649Z,61.29
2022-09-06T21:18:23.021Z,62.02
2022-09-06T21:21:28.106Z,63.34
2022-09-06T21:24:33.326Z,65.75
2022-09-06T21:27:38.037Z,65.31
2022-09-06T21:30:42.570Z,64.19
2022-09-06T21:33:47.758Z,63.26
